KPTT

Pratt Regional Airport

Pratt, Kansas, USA
METAR KPTT 120915Z AUTO 27006KT 10SM CLR M03/M05 A2998 RMK AO2 T10301047
Observed Flight Rules
Dec-12 @ 09:15 UTC (29 minutes ago) Visual Flight Rules
Wind Visibility Clouds
270° at 6 knots 10 miles
  • Clear skies
Temperatures Readings
Current -3°C / 27°F
Dewpoint -5°C / 23°F
Humidity 86%
Altimeter 29.98" Hg
Pressure 1015 hPa
Elevation 595
METAR KPTT 120915Z AUTO 27006KT 10SM CLR M03/M05 A2998 RMK AO2 T10301047
Observed Flight Rules
Dec-12 @ 09:15 UTC
(29 minutes ago)
VFR
Wind Visibility
270° at 6 knots 10 miles
Clouds
  • Clear skies
Temperature Dewpoint
-3°C / 27°F -5°C / 23°F
Humidity Altimeter Pressure
86% 29.98" Hg 1015 hPa